sensor_id;sensor_type;location;lat;lon;timestamp;P1;durP1;ratioP1;P2;durP2;ratioP2
39188;SDS011;24915;50.858;4.376;2023-03-25T00:00:06;4.53;;;1.77;;
39188;SDS011;24915;50.858;4.376;2023-03-25T00:02:38;7.22;;;1.73;;
39188;SDS011;24915;50.858;4.376;2023-03-25T00:05:05;5.10;;;1.50;;
39188;SDS011;24915;50.858;4.376;2023-03-25T00:07:31;4.53;;;1.40;;
39188;SDS011;24915;50.858;4.376;2023-03-25T00:09:57;5.45;;;1.75;;
39188;SDS011;24915;50.858;4.376;2023-03-25T00:12:23;7.35;;;2.10;;
39188;SDS011;24915;50.858;4.376;2023-03-25T00:14:48;4.47;;;1.70;;
39188;SDS011;24915;50.858;4.376;2023-03-25T00:17:23;9.30;;;2.25;;
39188;SDS011;24915;50.858;4.376;2023-03-25T00:19:52;6.03;;;1.67;;
39188;SDS011;24915;50.858;4.376;2023-03-25T00:22:19;5.18;;;1.42;;
39188;SDS011;24915;50.858;4.376;2023-03-25T00:24:46;6.35;;;1.92;;
39188;SDS011;24915;50.858;4.376;2023-03-25T00:27:12;7.10;;;1.67;;
39188;SDS011;24915;50.858;4.376;2023-03-25T00:29:39;10.20;;;2.13;;
39188;SDS011;24915;50.858;4.376;2023-03-25T00:32:06;7.03;;;1.98;;
39188;SDS011;24915;50.858;4.376;2023-03-25T00:34:31;5.63;;;1.38;;
39188;SDS011;24915;50.858;4.376;2023-03-25T00:36:59;12.38;;;2.33;;
39188;SDS011;24915;50.858;4.376;2023-03-25T00:39:26;5.68;;;1.90;;
39188;SDS011;24915;50.858;4.376;2023-03-25T00:41:53;5.97;;;1.60;;
39188;SDS011;24915;50.858;4.376;2023-03-25T00:44:21;14.10;;;3.00;;
39188;SDS011;24915;50.858;4.376;2023-03-25T00:46:47;8.05;;;1.67;;
39188;SDS011;24915;50.858;4.376;2023-03-25T00:49:13;10.30;;;1.80;;
39188;SDS011;24915;50.858;4.376;2023-03-25T00:51:38;4.90;;;1.50;;
39188;SDS011;24915;50.858;4.376;2023-03-25T00:54:04;7.05;;;1.80;;
39188;SDS011;24915;50.858;4.376;2023-03-25T00:56:30;7.10;;;2.30;;
39188;SDS011;24915;50.858;4.376;2023-03-25T00:58:56;9.13;;;2.20;;
39188;SDS011;24915;50.858;4.376;2023-03-25T01:01:25;9.57;;;2.05;;
39188;SDS011;24915;50.858;4.376;2023-03-25T01:03:53;4.25;;;2.08;;
39188;SDS011;24915;50.858;4.376;2023-03-25T01:06:24;11.50;;;1.98;;
39188;SDS011;24915;50.858;4.376;2023-03-25T01:08:56;8.80;;;1.90;;
39188;SDS011;24915;50.858;4.376;2023-03-25T01:11:28;7.30;;;1.92;;
39188;SDS011;24915;50.858;4.376;2023-03-25T01:13:58;6.28;;;2.08;;
39188;SDS011;24915;50.858;4.376;2023-03-25T01:16:24;11.13;;;2.28;;
39188;SDS011;24915;50.858;4.376;2023-03-25T01:18:50;10.02;;;2.42;;
39188;SDS011;24915;50.858;4.376;2023-03-25T01:21:16;8.55;;;2.17;;
39188;SDS011;24915;50.858;4.376;2023-03-25T01:23:42;8.25;;;1.88;;
39188;SDS011;24915;50.858;4.376;2023-03-25T01:26:08;8.48;;;1.85;;
39188;SDS011;24915;50.858;4.376;2023-03-25T01:28:34;10.52;;;2.65;;
39188;SDS011;24915;50.858;4.376;2023-03-25T01:31:00;10.13;;;2.05;;
39188;SDS011;24915;50.858;4.376;2023-03-25T01:33:28;8.88;;;2.08;;
39188;SDS011;24915;50.858;4.376;2023-03-25T01:35:54;11.20;;;2.25;;
39188;SDS011;24915;50.858;4.376;2023-03-25T01:38:20;7.82;;;2.30;;
39188;SDS011;24915;50.858;4.376;2023-03-25T01:40:46;8.07;;;2.58;;
39188;SDS011;24915;50.858;4.376;2023-03-25T01:43:13;6.00;;;1.90;;
39188;SDS011;24915;50.858;4.376;2023-03-25T01:45:39;13.48;;;2.67;;
39188;SDS011;24915;50.858;4.376;2023-03-25T01:48:07;8.43;;;1.92;;
39188;SDS011;24915;50.858;4.376;2023-03-25T01:50:37;9.32;;;2.10;;
39188;SDS011;24915;50.858;4.376;2023-03-25T01:53:08;9.50;;;2.25;;
39188;SDS011;24915;50.858;4.376;2023-03-25T01:55:34;8.27;;;2.22;;
39188;SDS011;24915;50.858;4.376;2023-03-25T01:58:04;11.13;;;2.60;;
39188;SDS011;24915;50.858;4.376;2023-03-25T02:00:34;8.60;;;1.85;;
39188;SDS011;24915;50.858;4.376;2023-03-25T02:03:03;14.50;;;2.58;;
39188;SDS011;24915;50.858;4.376;2023-03-25T02:05:52;9.65;;;2.38;;
39188;SDS011;24915;50.858;4.376;2023-03-25T02:08:35;14.48;;;2.35;;
39188;SDS011;24915;50.858;4.376;2023-03-25T02:11:07;8.48;;;2.08;;
39188;SDS011;24915;50.858;4.376;2023-03-25T02:13:33;7.43;;;1.75;;
39188;SDS011;24915;50.858;4.376;2023-03-25T02:21:12;11.70;;;2.55;;
39188;SDS011;24915;50.858;4.376;2023-03-25T02:34:51;8.18;;;2.00;;
39188;SDS011;24915;50.858;4.376;2023-03-25T02:40:17;8.13;;;2.30;;
39188;SDS011;24915;50.858;4.376;2023-03-25T02:42:59;13.82;;;2.13;;
39188;SDS011;24915;50.858;4.376;2023-03-25T02:48:20;9.52;;;2.22;;
39188;SDS011;24915;50.858;4.376;2023-03-25T02:50:50;11.50;;;2.10;;
39188;SDS011;24915;50.858;4.376;2023-03-25T02:53:29;6.70;;;1.70;;
39188;SDS011;24915;50.858;4.376;2023-03-25T02:56:01;12.23;;;2.10;;
39188;SDS011;24915;50.858;4.376;2023-03-25T02:58:30;8.63;;;2.17;;
39188;SDS011;24915;50.858;4.376;2023-03-25T03:00:57;10.40;;;2.30;;
39188;SDS011;24915;50.858;4.376;2023-03-25T03:03:24;9.90;;;1.95;;
39188;SDS011;24915;50.858;4.376;2023-03-25T03:05:52;8.55;;;1.75;;
39188;SDS011;24915;50.858;4.376;2023-03-25T03:08:37;12.10;;;2.00;;
39188;SDS011;24915;50.858;4.376;2023-03-25T03:24:50;13.20;;;2.10;;
39188;SDS011;24915;50.858;4.376;2023-03-25T03:30:16;14.85;;;2.42;;
39188;SDS011;24915;50.858;4.376;2023-03-25T03:35:34;21.95;;;4.10;;
39188;SDS011;24915;50.858;4.376;2023-03-25T03:38:07;13.57;;;2.30;;
39188;SDS011;24915;50.858;4.376;2023-03-25T03:40:36;16.05;;;3.30;;
39188;SDS011;24915;50.858;4.376;2023-03-25T03:43:06;17.00;;;3.40;;
39188;SDS011;24915;50.858;4.376;2023-03-25T03:45:43;10.63;;;2.13;;
39188;SDS011;24915;50.858;4.376;2023-03-25T03:48:20;17.88;;;2.97;;
39188;SDS011;24915;50.858;4.376;2023-03-25T03:51:07;18.50;;;2.85;;
39188;SDS011;24915;50.858;4.376;2023-03-25T03:53:36;20.02;;;2.78;;
39188;SDS011;24915;50.858;4.376;2023-03-25T03:56:08;22.58;;;3.08;;
39188;SDS011;24915;50.858;4.376;2023-03-25T03:58:43;17.67;;;3.47;;
39188;SDS011;24915;50.858;4.376;2023-03-25T04:03:58;13.43;;;2.35;;
39188;SDS011;24915;50.858;4.376;2023-03-25T04:11:55;9.27;;;2.50;;
39188;SDS011;24915;50.858;4.376;2023-03-25T04:14:33;18.98;;;3.40;;
39188;SDS011;24915;50.858;4.376;2023-03-25T04:17:00;15.02;;;2.88;;
39188;SDS011;24915;50.858;4.376;2023-03-25T04:19:26;15.63;;;3.00;;
39188;SDS011;24915;50.858;4.376;2023-03-25T04:21:52;15.65;;;2.65;;
39188;SDS011;24915;50.858;4.376;2023-03-25T04:24:18;13.05;;;2.95;;
39188;SDS011;24915;50.858;4.376;2023-03-25T04:26:44;16.92;;;3.17;;
39188;SDS011;24915;50.858;4.376;2023-03-25T04:29:11;20.48;;;3.20;;
39188;SDS011;24915;50.858;4.376;2023-03-25T04:31:38;12.93;;;2.67;;
39188;SDS011;24915;50.858;4.376;2023-03-25T04:34:11;17.48;;;3.08;;
39188;SDS011;24915;50.858;4.376;2023-03-25T04:36:40;17.55;;;3.10;;
39188;SDS011;24915;50.858;4.376;2023-03-25T04:39:08;24.25;;;3.47;;
39188;SDS011;24915;50.858;4.376;2023-03-25T04:41:36;14.85;;;2.53;;
39188;SDS011;24915;50.858;4.376;2023-03-25T04:44:02;16.13;;;3.03;;
39188;SDS011;24915;50.858;4.376;2023-03-25T04:46:31;14.13;;;2.53;;
39188;SDS011;24915;50.858;4.376;2023-03-25T04:48:58;26.58;;;4.18;;
39188;SDS011;24915;50.858;4.376;2023-03-25T04:51:27;11.90;;;2.53;;
39188;SDS011;24915;50.858;4.376;2023-03-25T04:53:54;19.02;;;3.17;;
39188;SDS011;24915;50.858;4.376;2023-03-25T04:56:19;13.48;;;2.92;;
39188;SDS011;24915;50.858;4.376;2023-03-25T04:58:47;17.95;;;3.00;;
39188;SDS011;24915;50.858;4.376;2023-03-25T05:01:20;13.25;;;2.95;;
39188;SDS011;24915;50.858;4.376;2023-03-25T05:04:00;12.43;;;2.60;;
39188;SDS011;24915;50.858;4.376;2023-03-25T05:06:31;11.10;;;2.53;;
39188;SDS011;24915;50.858;4.376;2023-03-25T05:09:03;19.85;;;3.33;;
39188;SDS011;24915;50.858;4.376;2023-03-25T05:11:30;15.82;;;3.05;;
39188;SDS011;24915;50.858;4.376;2023-03-25T05:13:57;12.65;;;2.22;;
39188;SDS011;24915;50.858;4.376;2023-03-25T05:16:23;10.65;;;2.17;;
39188;SDS011;24915;50.858;4.376;2023-03-25T05:18:49;8.32;;;2.13;;
39188;SDS011;24915;50.858;4.376;2023-03-25T05:21:15;13.27;;;2.10;;
39188;SDS011;24915;50.858;4.376;2023-03-25T05:23:41;21.13;;;2.95;;
39188;SDS011;24915;50.858;4.376;2023-03-25T05:26:07;9.65;;;2.42;;
39188;SDS011;24915;50.858;4.376;2023-03-25T05:28:33;20.95;;;2.80;;
39188;SDS011;24915;50.858;4.376;2023-03-25T05:31:00;17.90;;;2.90;;
39188;SDS011;24915;50.858;4.376;2023-03-25T05:33:32;17.17;;;3.53;;
39188;SDS011;24915;50.858;4.376;2023-03-25T05:36:12;11.48;;;3.25;;
39188;SDS011;24915;50.858;4.376;2023-03-25T05:38:40;12.85;;;2.30;;
39188;SDS011;24915;50.858;4.376;2023-03-25T05:41:07;17.50;;;3.25;;
39188;SDS011;24915;50.858;4.376;2023-03-25T05:43:40;22.42;;;3.25;;
39188;SDS011;24915;50.858;4.376;2023-03-25T05:46:10;23.17;;;3.67;;
39188;SDS011;24915;50.858;4.376;2023-03-25T05:48:36;15.38;;;2.15;;
39188;SDS011;24915;50.858;4.376;2023-03-25T05:51:05;22.83;;;3.05;;
39188;SDS011;24915;50.858;4.376;2023-03-25T05:53:43;14.68;;;2.63;;
39188;SDS011;24915;50.858;4.376;2023-03-25T05:56:13;22.13;;;3.70;;
39188;SDS011;24915;50.858;4.376;2023-03-25T05:58:43;15.40;;;2.70;;
39188;SDS011;24915;50.858;4.376;2023-03-25T06:01:14;20.65;;;3.35;;
39188;SDS011;24915;50.858;4.376;2023-03-25T06:03:42;24.70;;;2.80;;
39188;SDS011;24915;50.858;4.376;2023-03-25T06:06:09;18.65;;;3.10;;
39188;SDS011;24915;50.858;4.376;2023-03-25T06:08:56;22.10;;;2.95;;
39188;SDS011;24915;50.858;4.376;2023-03-25T06:11:22;16.95;;;3.13;;
39188;SDS011;24915;50.858;4.376;2023-03-25T06:13:48;24.00;;;3.50;;
39188;SDS011;24915;50.858;4.376;2023-03-25T06:16:18;16.17;;;2.45;;
39188;SDS011;24915;50.858;4.376;2023-03-25T06:18:49;14.48;;;2.95;;
39188;SDS011;24915;50.858;4.376;2023-03-25T06:21:20;21.25;;;2.60;;
39188;SDS011;24915;50.858;4.376;2023-03-25T06:23:47;22.38;;;3.58;;
39188;SDS011;24915;50.858;4.376;2023-03-25T06:26:14;12.63;;;2.40;;
39188;SDS011;24915;50.858;4.376;2023-03-25T06:28:41;17.25;;;3.55;;
39188;SDS011;24915;50.858;4.376;2023-03-25T06:33:44;16.73;;;3.13;;
39188;SDS011;24915;50.858;4.376;2023-03-25T06:36:12;23.05;;;3.05;;
39188;SDS011;24915;50.858;4.376;2023-03-25T06:38:43;12.38;;;2.35;;
39188;SDS011;24915;50.858;4.376;2023-03-25T06:41:10;15.65;;;2.83;;
39188;SDS011;24915;50.858;4.376;2023-03-25T06:43:38;12.65;;;2.55;;
39188;SDS011;24915;50.858;4.376;2023-03-25T06:46:07;18.90;;;2.72;;
39188;SDS011;24915;50.858;4.376;2023-03-25T06:48:33;16.98;;;3.05;;
39188;SDS011;24915;50.858;4.376;2023-03-25T06:50:59;22.27;;;3.22;;
39188;SDS011;24915;50.858;4.376;2023-03-25T06:53:25;15.43;;;3.10;;
39188;SDS011;24915;50.858;4.376;2023-03-25T06:55:50;17.40;;;3.05;;
39188;SDS011;24915;50.858;4.376;2023-03-25T06:58:16;19.38;;;2.95;;
39188;SDS011;24915;50.858;4.376;2023-03-25T07:00:42;16.80;;;3.55;;
39188;SDS011;24915;50.858;4.376;2023-03-25T07:03:08;18.33;;;2.92;;
39188;SDS011;24915;50.858;4.376;2023-03-25T07:05:34;22.33;;;3.15;;
39188;SDS011;24915;50.858;4.376;2023-03-25T07:08:00;17.38;;;2.50;;
39188;SDS011;24915;50.858;4.376;2023-03-25T07:10:26;17.63;;;2.92;;
39188;SDS011;24915;50.858;4.376;2023-03-25T07:12:52;19.08;;;3.05;;
39188;SDS011;24915;50.858;4.376;2023-03-25T07:15:17;17.13;;;2.95;;
39188;SDS011;24915;50.858;4.376;2023-03-25T07:17:43;15.10;;;2.47;;
39188;SDS011;24915;50.858;4.376;2023-03-25T07:20:09;25.33;;;3.85;;
39188;SDS011;24915;50.858;4.376;2023-03-25T07:22:35;24.15;;;3.60;;
39188;SDS011;24915;50.858;4.376;2023-03-25T07:25:01;18.83;;;3.22;;
39188;SDS011;24915;50.858;4.376;2023-03-25T07:27:27;23.58;;;3.42;;
39188;SDS011;24915;50.858;4.376;2023-03-25T07:29:52;33.13;;;3.88;;
39188;SDS011;24915;50.858;4.376;2023-03-25T07:32:18;23.75;;;3.70;;
39188;SDS011;24915;50.858;4.376;2023-03-25T07:34:44;26.58;;;3.58;;
39188;SDS011;24915;50.858;4.376;2023-03-25T07:37:09;17.40;;;2.80;;
39188;SDS011;24915;50.858;4.376;2023-03-25T07:39:35;26.60;;;3.65;;
39188;SDS011;24915;50.858;4.376;2023-03-25T07:42:01;17.35;;;3.13;;
39188;SDS011;24915;50.858;4.376;2023-03-25T07:44:26;23.15;;;3.35;;
39188;SDS011;24915;50.858;4.376;2023-03-25T07:46:52;21.73;;;3.13;;
39188;SDS011;24915;50.858;4.376;2023-03-25T07:49:18;20.33;;;3.75;;
39188;SDS011;24915;50.858;4.376;2023-03-25T07:51:43;25.98;;;4.20;;
39188;SDS011;24915;50.858;4.376;2023-03-25T07:54:10;24.85;;;3.67;;
39188;SDS011;24915;50.858;4.376;2023-03-25T07:56:36;24.98;;;4.07;;
39188;SDS011;24915;50.858;4.376;2023-03-25T07:59:02;24.77;;;4.45;;
39188;SDS011;24915;50.858;4.376;2023-03-25T08:01:28;28.67;;;4.78;;
39188;SDS011;24915;50.858;4.376;2023-03-25T08:03:55;29.90;;;4.75;;
39188;SDS011;24915;50.858;4.376;2023-03-25T08:06:21;24.98;;;3.47;;
39188;SDS011;24915;50.858;4.376;2023-03-25T08:08:47;30.23;;;3.85;;
39188;SDS011;24915;50.858;4.376;2023-03-25T08:11:13;20.65;;;4.03;;
39188;SDS011;24915;50.858;4.376;2023-03-25T08:13:38;17.55;;;3.13;;
39188;SDS011;24915;50.858;4.376;2023-03-25T08:16:11;22.05;;;3.50;;
39188;SDS011;24915;50.858;4.376;2023-03-25T08:18:37;23.25;;;4.45;;
39188;SDS011;24915;50.858;4.376;2023-03-25T08:21:03;21.75;;;3.55;;
39188;SDS011;24915;50.858;4.376;2023-03-25T08:23:30;24.50;;;3.97;;
39188;SDS011;24915;50.858;4.376;2023-03-25T08:26:01;28.77;;;3.80;;
39188;SDS011;24915;50.858;4.376;2023-03-25T08:28:27;24.98;;;4.15;;
39188;SDS011;24915;50.858;4.376;2023-03-25T08:30:52;27.08;;;4.50;;
39188;SDS011;24915;50.858;4.376;2023-03-25T08:33:22;26.48;;;4.03;;
39188;SDS011;24915;50.858;4.376;2023-03-25T08:35:51;23.80;;;3.78;;
39188;SDS011;24915;50.858;4.376;2023-03-25T08:38:17;33.72;;;4.57;;
39188;SDS011;24915;50.858;4.376;2023-03-25T08:40:42;34.38;;;4.22;;
39188;SDS011;24915;50.858;4.376;2023-03-25T08:43:09;32.10;;;4.10;;
39188;SDS011;24915;50.858;4.376;2023-03-25T08:45:34;25.75;;;4.93;;
39188;SDS011;24915;50.858;4.376;2023-03-25T08:48:01;34.15;;;5.15;;
39188;SDS011;24915;50.858;4.376;2023-03-25T08:50:27;27.10;;;4.35;;
39188;SDS011;24915;50.858;4.376;2023-03-25T08:52:53;27.80;;;4.30;;
39188;SDS011;24915;50.858;4.376;2023-03-25T08:55:22;21.25;;;4.13;;
39188;SDS011;24915;50.858;4.376;2023-03-25T08:57:48;21.42;;;3.92;;
39188;SDS011;24915;50.858;4.376;2023-03-25T09:00:14;26.00;;;3.47;;
39188;SDS011;24915;50.858;4.376;2023-03-25T09:02:41;22.45;;;4.32;;
39188;SDS011;24915;50.858;4.376;2023-03-25T09:05:08;24.48;;;4.53;;
39188;SDS011;24915;50.858;4.376;2023-03-25T09:07:35;25.58;;;4.47;;
39188;SDS011;24915;50.858;4.376;2023-03-25T09:10:01;36.08;;;5.88;;
39188;SDS011;24915;50.858;4.376;2023-03-25T09:12:28;32.78;;;4.70;;
39188;SDS011;24915;50.858;4.376;2023-03-25T09:14:53;37.42;;;4.50;;
39188;SDS011;24915;50.858;4.376;2023-03-25T09:17:19;29.05;;;4.45;;
39188;SDS011;24915;50.858;4.376;2023-03-25T09:19:45;31.75;;;4.65;;
39188;SDS011;24915;50.858;4.376;2023-03-25T09:22:12;39.75;;;5.43;;
39188;SDS011;24915;50.858;4.376;2023-03-25T09:24:38;31.90;;;5.90;;
39188;SDS011;24915;50.858;4.376;2023-03-25T09:27:05;26.52;;;4.65;;
39188;SDS011;24915;50.858;4.376;2023-03-25T09:29:32;34.97;;;5.13;;
39188;SDS011;24915;50.858;4.376;2023-03-25T09:31:58;32.63;;;4.70;;
39188;SDS011;24915;50.858;4.376;2023-03-25T09:34:25;29.90;;;4.45;;
39188;SDS011;24915;50.858;4.376;2023-03-25T09:36:52;26.75;;;5.20;;
39188;SDS011;24915;50.858;4.376;2023-03-25T09:39:19;27.73;;;3.83;;
39188;SDS011;24915;50.858;4.376;2023-03-25T09:44:29;26.65;;;4.70;;
39188;SDS011;24915;50.858;4.376;2023-03-25T09:47:11;41.53;;;9.63;;
39188;SDS011;24915;50.858;4.376;2023-03-25T09:49:39;29.65;;;4.60;;
39188;SDS011;24915;50.858;4.376;2023-03-25T09:52:11;27.67;;;4.53;;
39188;SDS011;24915;50.858;4.376;2023-03-25T09:54:48;28.90;;;4.80;;
39188;SDS011;24915;50.858;4.376;2023-03-25T09:57:17;38.40;;;5.15;;
39188;SDS011;24915;50.858;4.376;2023-03-25T09:59:48;28.45;;;4.15;;
39188;SDS011;24915;50.858;4.376;2023-03-25T10:11:01;34.40;;;5.63;;
39188;SDS011;24915;50.858;4.376;2023-03-25T10:13:57;26.95;;;5.50;;
39188;SDS011;24915;50.858;4.376;2023-03-25T10:16:49;29.92;;;5.32;;
39188;SDS011;24915;50.858;4.376;2023-03-25T10:24:30;39.85;;;5.90;;
39188;SDS011;24915;50.858;4.376;2023-03-25T10:35:03;29.42;;;4.38;;
39188;SDS011;24915;50.858;4.376;2023-03-25T10:37:34;27.63;;;4.32;;
39188;SDS011;24915;50.858;4.376;2023-03-25T10:43:16;22.85;;;3.95;;
39188;SDS011;24915;50.858;4.376;2023-03-25T10:45:59;23.42;;;5.00;;
39188;SDS011;24915;50.858;4.376;2023-03-25T10:48:49;24.70;;;5.13;;
39188;SDS011;24915;50.858;4.376;2023-03-25T10:51:18;31.58;;;4.82;;
39188;SDS011;24915;50.858;4.376;2023-03-25T10:53:49;25.60;;;3.38;;
39188;SDS011;24915;50.858;4.376;2023-03-25T10:59:05;25.20;;;4.40;;
39188;SDS011;24915;50.858;4.376;2023-03-25T11:01:56;21.63;;;4.43;;
39188;SDS011;24915;50.858;4.376;2023-03-25T11:04:30;21.58;;;3.67;;
39188;SDS011;24915;50.858;4.376;2023-03-25T11:07:00;29.42;;;4.53;;
39188;SDS011;24915;50.858;4.376;2023-03-25T11:09:29;19.73;;;3.42;;
39188;SDS011;24915;50.858;4.376;2023-03-25T11:12:00;25.88;;;4.70;;
39188;SDS011;24915;50.858;4.376;2023-03-25T11:14:28;21.10;;;4.57;;
39188;SDS011;24915;50.858;4.376;2023-03-25T11:16:55;18.98;;;3.95;;
39188;SDS011;24915;50.858;4.376;2023-03-25T11:19:27;17.25;;;3.78;;
39188;SDS011;24915;50.858;4.376;2023-03-25T11:24:44;24.38;;;4.22;;
39188;SDS011;24915;50.858;4.376;2023-03-25T11:27:17;21.02;;;4.25;;
39188;SDS011;24915;50.858;4.376;2023-03-25T11:29:54;17.52;;;4.25;;
39188;SDS011;24915;50.858;4.376;2023-03-25T11:32:37;24.08;;;4.45;;
39188;SDS011;24915;50.858;4.376;2023-03-25T11:35:23;28.20;;;4.55;;
39188;SDS011;24915;50.858;4.376;2023-03-25T11:37:55;19.70;;;4.35;;
39188;SDS011;24915;50.858;4.376;2023-03-25T11:40:22;24.27;;;4.95;;
39188;SDS011;24915;50.858;4.376;2023-03-25T11:42:55;27.08;;;5.22;;
39188;SDS011;24915;50.858;4.376;2023-03-25T11:47:50;29.30;;;4.10;;
39188;SDS011;24915;50.858;4.376;2023-03-25T11:50:24;22.98;;;4.20;;
39188;SDS011;24915;50.858;4.376;2023-03-25T11:52:55;23.08;;;4.55;;
39188;SDS011;24915;50.858;4.376;2023-03-25T11:55:28;22.00;;;4.15;;
39188;SDS011;24915;50.858;4.376;2023-03-25T11:57:56;20.88;;;3.85;;
39188;SDS011;24915;50.858;4.376;2023-03-25T12:05:38;21.63;;;4.05;;
39188;SDS011;24915;50.858;4.376;2023-03-25T12:08:12;21.90;;;3.85;;
39188;SDS011;24915;50.858;4.376;2023-03-25T12:13:45;25.10;;;4.55;;
39188;SDS011;24915;50.858;4.376;2023-03-25T12:16:33;21.17;;;4.32;;
39188;SDS011;24915;50.858;4.376;2023-03-25T12:22:12;26.05;;;5.13;;
39188;SDS011;24915;50.858;4.376;2023-03-25T12:35:21;17.42;;;4.18;;
39188;SDS011;24915;50.858;4.376;2023-03-25T12:37:59;22.17;;;3.80;;
39188;SDS011;24915;50.858;4.376;2023-03-25T12:54:02;28.63;;;8.80;;
39188;SDS011;24915;50.858;4.376;2023-03-25T12:57:03;24.92;;;4.28;;
39188;SDS011;24915;50.858;4.376;2023-03-25T12:59:56;25.48;;;3.88;;
39188;SDS011;24915;50.858;4.376;2023-03-25T13:11:11;27.88;;;4.05;;
39188;SDS011;24915;50.858;4.376;2023-03-25T13:13:52;21.20;;;3.78;;
39188;SDS011;24915;50.858;4.376;2023-03-25T13:16:21;16.02;;;4.28;;
39188;SDS011;24915;50.858;4.376;2023-03-25T13:18:59;28.10;;;4.32;;
39188;SDS011;24915;50.858;4.376;2023-03-25T13:21:26;23.45;;;4.65;;
39188;SDS011;24915;50.858;4.376;2023-03-25T13:24:14;23.73;;;4.22;;
39188;SDS011;24915;50.858;4.376;2023-03-25T13:26:54;20.73;;;4.45;;
39188;SDS011;24915;50.858;4.376;2023-03-25T13:31:55;32.72;;;4.63;;
39188;SDS011;24915;50.858;4.376;2023-03-25T13:34:29;21.83;;;4.57;;
39188;SDS011;24915;50.858;4.376;2023-03-25T13:38:01;24.45;;;4.53;;
39188;SDS011;24915;50.858;4.376;2023-03-25T13:45:21;21.85;;;3.90;;
39188;SDS011;24915;50.858;4.376;2023-03-25T13:48:04;16.02;;;3.70;;
39188;SDS011;24915;50.858;4.376;2023-03-25T13:50:40;19.27;;;3.67;;
39188;SDS011;24915;50.858;4.376;2023-03-25T14:14:24;19.58;;;3.30;;
39188;SDS011;24915;50.858;4.376;2023-03-25T14:16:52;20.38;;;3.60;;
39188;SDS011;24915;50.858;4.376;2023-03-25T14:19:29;16.83;;;3.78;;
39188;SDS011;24915;50.858;4.376;2023-03-25T14:21:59;19.30;;;4.63;;
39188;SDS011;24915;50.858;4.376;2023-03-25T14:24:46;25.10;;;4.85;;
39188;SDS011;24915;50.858;4.376;2023-03-25T14:27:17;19.17;;;4.25;;
39188;SDS011;24915;50.858;4.376;2023-03-25T14:30:10;19.02;;;4.03;;
39188;SDS011;24915;50.858;4.376;2023-03-25T14:32:40;16.70;;;3.15;;
39188;SDS011;24915;50.858;4.376;2023-03-25T14:45:52;18.80;;;3.78;;
39188;SDS011;24915;50.858;4.376;2023-03-25T14:48:33;11.73;;;2.50;;
39188;SDS011;24915;50.858;4.376;2023-03-25T14:51:08;19.52;;;4.03;;
39188;SDS011;24915;50.858;4.376;2023-03-25T14:53:54;14.13;;;3.17;;
39188;SDS011;24915;50.858;4.376;2023-03-25T14:57:16;15.27;;;2.78;;
39188;SDS011;24915;50.858;4.376;2023-03-25T14:59:40;22.80;;;3.08;;
39188;SDS011;24915;50.858;4.376;2023-03-25T15:02:23;18.65;;;3.50;;
39188;SDS011;24915;50.858;4.376;2023-03-25T15:05:03;11.65;;;2.97;;
39188;SDS011;24915;50.858;4.376;2023-03-25T15:07:44;26.90;;;3.67;;
39188;SDS011;24915;50.858;4.376;2023-03-25T15:12:51;10.02;;;2.42;;
39188;SDS011;24915;50.858;4.376;2023-03-25T15:15:31;11.98;;;2.65;;
39188;SDS011;24915;50.858;4.376;2023-03-25T15:18:10;14.00;;;2.70;;
39188;SDS011;24915;50.858;4.376;2023-03-25T15:20:37;10.93;;;2.78;;
39188;SDS011;24915;50.858;4.376;2023-03-25T15:25:53;12.32;;;2.83;;
39188;SDS011;24915;50.858;4.376;2023-03-25T15:40:30;24.77;;;4.18;;
39188;SDS011;24915;50.858;4.376;2023-03-25T15:54:32;17.38;;;4.28;;
39188;SDS011;24915;50.858;4.376;2023-03-25T15:57:29;22.63;;;4.45;;
39188;SDS011;24915;50.858;4.376;2023-03-25T16:05:06;27.60;;;5.20;;
39188;SDS011;24915;50.858;4.376;2023-03-25T16:07:32;25.85;;;4.68;;
39188;SDS011;24915;50.858;4.376;2023-03-25T16:10:19;27.52;;;4.82;;
39188;SDS011;24915;50.858;4.376;2023-03-25T16:12:52;25.55;;;4.68;;
39188;SDS011;24915;50.858;4.376;2023-03-25T16:15:23;21.60;;;4.07;;
39188;SDS011;24915;50.858;4.376;2023-03-25T16:17:51;26.83;;;4.75;;
39188;SDS011;24915;50.858;4.376;2023-03-25T16:20:17;24.33;;;4.47;;
39188;SDS011;24915;50.858;4.376;2023-03-25T16:22:48;31.95;;;4.63;;
39188;SDS011;24915;50.858;4.376;2023-03-25T16:25:21;22.60;;;5.15;;
39188;SDS011;24915;50.858;4.376;2023-03-25T16:27:52;31.20;;;4.90;;
39188;SDS011;24915;50.858;4.376;2023-03-25T16:30:22;28.33;;;5.00;;
39188;SDS011;24915;50.858;4.376;2023-03-25T16:33:57;33.67;;;6.28;;
39188;SDS011;24915;50.858;4.376;2023-03-25T16:35:57;28.80;;;5.35;;
39188;SDS011;24915;50.858;4.376;2023-03-25T16:38:32;28.65;;;5.25;;
39188;SDS011;24915;50.858;4.376;2023-03-25T16:41:02;34.15;;;5.20;;
39188;SDS011;24915;50.858;4.376;2023-03-25T16:43:31;28.38;;;5.80;;
39188;SDS011;24915;50.858;4.376;2023-03-25T16:45:58;26.85;;;5.80;;
39188;SDS011;24915;50.858;4.376;2023-03-25T16:48:27;33.60;;;5.63;;
39188;SDS011;24915;50.858;4.376;2023-03-25T16:50:59;27.45;;;4.63;;
39188;SDS011;24915;50.858;4.376;2023-03-25T16:53:31;29.02;;;5.47;;
39188;SDS011;24915;50.858;4.376;2023-03-25T16:58:52;28.45;;;5.57;;
39188;SDS011;24915;50.858;4.376;2023-03-25T17:01:30;27.20;;;5.47;;
39188;SDS011;24915;50.858;4.376;2023-03-25T17:04:19;33.20;;;6.53;;
39188;SDS011;24915;50.858;4.376;2023-03-25T17:06:53;39.13;;;9.52;;
39188;SDS011;24915;50.858;4.376;2023-03-25T17:09:26;31.15;;;6.72;;
39188;SDS011;24915;50.858;4.376;2023-03-25T17:11:59;28.85;;;5.75;;
39188;SDS011;24915;50.858;4.376;2023-03-25T17:14:27;27.75;;;6.20;;
39188;SDS011;24915;50.858;4.376;2023-03-25T17:16:57;34.75;;;5.05;;
39188;SDS011;24915;50.858;4.376;2023-03-25T17:19:47;30.50;;;7.20;;
39188;SDS011;24915;50.858;4.376;2023-03-25T17:22:19;30.35;;;6.22;;
39188;SDS011;24915;50.858;4.376;2023-03-25T17:24:54;25.08;;;5.18;;
39188;SDS011;24915;50.858;4.376;2023-03-25T17:27:34;31.20;;;5.43;;
39188;SDS011;24915;50.858;4.376;2023-03-25T17:30:17;30.58;;;5.82;;
39188;SDS011;24915;50.858;4.376;2023-03-25T17:32:52;34.90;;;6.32;;
39188;SDS011;24915;50.858;4.376;2023-03-25T17:35:22;29.05;;;6.20;;
39188;SDS011;24915;50.858;4.376;2023-03-25T17:37:51;29.42;;;5.65;;
39188;SDS011;24915;50.858;4.376;2023-03-25T17:40:21;33.40;;;6.25;;
39188;SDS011;24915;50.858;4.376;2023-03-25T17:42:50;36.15;;;6.53;;
39188;SDS011;24915;50.858;4.376;2023-03-25T17:45:24;30.23;;;6.10;;
39188;SDS011;24915;50.858;4.376;2023-03-25T17:47:50;42.58;;;6.32;;
39188;SDS011;24915;50.858;4.376;2023-03-25T17:50:20;30.38;;;5.88;;
39188;SDS011;24915;50.858;4.376;2023-03-25T17:52:52;33.00;;;5.25;;
39188;SDS011;24915;50.858;4.376;2023-03-25T17:55:19;30.73;;;7.15;;
39188;SDS011;24915;50.858;4.376;2023-03-25T17:57:46;38.38;;;7.53;;
39188;SDS011;24915;50.858;4.376;2023-03-25T18:00:14;38.40;;;7.88;;
39188;SDS011;24915;50.858;4.376;2023-03-25T18:02:42;31.35;;;6.25;;
39188;SDS011;24915;50.858;4.376;2023-03-25T18:05:09;37.17;;;7.13;;
39188;SDS011;24915;50.858;4.376;2023-03-25T18:07:35;32.00;;;7.53;;
39188;SDS011;24915;50.858;4.376;2023-03-25T18:10:01;33.33;;;6.65;;
39188;SDS011;24915;50.858;4.376;2023-03-25T18:12:30;44.58;;;9.93;;
39188;SDS011;24915;50.858;4.376;2023-03-25T18:14:56;41.75;;;7.93;;
39188;SDS011;24915;50.858;4.376;2023-03-25T18:17:22;31.65;;;8.43;;
39188;SDS011;24915;50.858;4.376;2023-03-25T18:19:47;42.53;;;10.48;;
39188;SDS011;24915;50.858;4.376;2023-03-25T18:22:13;36.10;;;7.30;;
39188;SDS011;24915;50.858;4.376;2023-03-25T18:24:38;28.73;;;6.90;;